Time;durP1;ratioP1;P1;durP2;ratioP2;P2;SDS_P1;SDS_P2;PMS_P1;PMS_P2;Temp;Humidity;BMP_temperature;BMP_pressure;BME280_temperature;BME280_humidity;BME280_pressure;Samples;Min_cycle;Max_cycle;Signal;HPM_P1;HPM_P2
2023/07/03 00:00:45;;;;;;;17.48;4.80;;;;;;;12.94;100.00;100267.88;4968850;28;20237;-48
2023/07/03 00:03:14;;;;;;;16.02;4.18;;;;;;;13.03;100.00;100278.13;4970320;28;20202;-50
2023/07/03 00:05:46;;;;;;;15.02;5.05;;;;;;;13.01;100.00;100271.06;4970004;28;20166;-48
2023/07/03 00:08:17;;;;;;;12.75;4.63;;;;;;;12.99;100.00;100279.25;4970503;28;20217;-48
2023/07/03 00:10:42;;;;;;;11.00;4.88;;;;;;;13.04;100.00;100273.59;4974098;28;20992;-47
2023/07/03 00:13:09;;;;;;;12.43;4.40;;;;;;;13.09;100.00;100274.19;4973912;28;20247;-48
2023/07/03 00:15:35;;;;;;;11.13;4.30;;;;;;;13.08;100.00;100269.78;4974014;28;20336;-50
2023/07/03 00:18:01;;;;;;;16.65;6.10;;;;;;;13.09;100.00;100282.25;4974089;28;20229;-47
2023/07/03 00:20:27;;;;;;;15.40;5.25;;;;;;;13.04;100.00;100277.16;4974133;28;20241;-48
2023/07/03 00:22:54;;;;;;;14.77;4.90;;;;;;;12.96;100.00;100274.03;4973909;28;20204;-48
2023/07/03 00:25:21;;;;;;;15.48;5.55;;;;;;;13.09;100.00;100285.81;4973926;28;20196;-51
2023/07/03 00:27:47;;;;;;;16.33;5.32;;;;;;;13.08;100.00;100302.06;4973740;28;20185;-48
2023/07/03 00:30:14;;;;;;;17.83;5.30;;;;;;;13.06;100.00;100279.75;4972716;28;20197;-48
2023/07/03 00:32:39;;;;;;;16.38;5.93;;;;;;;12.98;100.00;100280.19;4988757;28;20265;-48
2023/07/03 00:35:06;;;;;;;11.25;5.25;;;;;;;13.07;100.00;100290.41;4973717;28;20360;-48
2023/07/03 00:37:32;;;;;;;12.23;5.22;;;;;;;12.84;100.00;100286.34;4973804;28;20186;-49
2023/07/03 00:39:58;;;;;;;14.40;5.28;;;;;;;12.81;100.00;100296.41;4988434;28;20665;-48
2023/07/03 00:42:26;;;;;;;14.65;5.75;;;;;;;12.65;100.00;100285.66;4972200;28;20184;-53
2023/07/03 00:44:52;;;;;;;18.20;5.60;;;;;;;12.70;100.00;100287.13;4972146;28;20229;-48
2023/07/03 00:47:18;;;;;;;11.82;4.90;;;;;;;12.65;100.00;100281.13;4973833;28;20186;-47
2023/07/03 00:49:43;;;;;;;14.50;5.28;;;;;;;12.63;100.00;100277.66;4988263;28;20174;-49
2023/07/03 00:52:11;;;;;;;15.80;4.55;;;;;;;12.65;100.00;100270.38;4973425;28;20257;-48
2023/07/03 00:54:40;;;;;;;9.75;4.35;;;;;;;12.51;100.00;100252.34;4973465;28;20245;-48
2023/07/03 00:57:10;;;;;;;11.45;4.32;;;;;;;12.49;100.00;100258.75;4973134;28;20166;-52
2023/07/03 00:59:36;;;;;;;12.07;3.80;;;;;;;12.39;100.00;100260.22;4973329;28;20155;-51
2023/07/03 01:02:27;;;;;;;11.27;4.35;;;;;;;12.32;100.00;100263.22;4973073;28;20268;-49
2023/07/03 01:05:19;;;;;;;8.90;4.05;;;;;;;12.30;100.00;100264.28;4973083;28;20209;-49
2023/07/03 01:07:46;;;;;;;9.32;3.80;;;;;;;12.32;100.00;100265.91;4971819;28;20177;-51
2023/07/03 01:10:20;;;;;;;6.28;3.53;;;;;;;12.30;100.00;100251.69;4972989;28;20170;-48
2023/07/03 01:12:49;;;;;;;9.18;3.50;;;;;;;12.26;100.00;100250.13;4972883;28;20585;-48
2023/07/03 01:15:21;;;;;;;11.00;3.55;;;;;;;12.30;100.00;100245.47;4971733;28;20181;-51
2023/07/03 01:17:50;;;;;;;9.77;3.58;;;;;;;12.27;100.00;100248.34;4972412;28;20166;-50
2023/07/03 01:20:19;;;;;;;13.63;3.67;;;;;;;12.31;100.00;100242.72;4970685;28;20277;-48
2023/07/03 01:23:02;;;;;;;15.13;3.75;;;;;;;12.26;100.00;100231.31;4972758;28;20531;-48
2023/07/03 01:29:11;;;;;;;9.10;3.55;;;;;;;12.32;100.00;100225.63;4972072;28;20173;-49
2023/07/03 01:31:38;;;;;;;10.57;3.47;;;;;;;12.25;100.00;100234.97;4971282;28;20210;-48
2023/07/03 01:34:08;;;;;;;9.43;3.47;;;;;;;12.14;100.00;100227.50;4972608;28;20293;-49
2023/07/03 01:36:35;;;;;;;12.15;3.47;;;;;;;12.12;100.00;100234.78;4971304;28;20189;-48
2023/07/03 01:39:02;;;;;;;12.80;4.28;;;;;;;12.08;100.00;100226.97;4971069;28;20258;-48
2023/07/03 01:41:29;;;;;;;8.07;3.13;;;;;;;12.16;100.00;100238.19;4972214;28;20672;-48
2023/07/03 01:43:55;;;;;;;11.85;3.95;;;;;;;12.12;100.00;100228.53;4970796;28;20206;-48
2023/07/03 01:46:22;;;;;;;12.43;3.45;;;;;;;12.13;100.00;100225.78;4972415;28;20169;-51
2023/07/03 01:48:48;;;;;;;14.20;3.47;;;;;;;12.15;100.00;100228.38;4972258;28;20272;-50
2023/07/03 01:51:20;;;;;;;9.43;3.53;;;;;;;12.23;100.00;100219.91;4970983;28;20174;-48
2023/07/03 01:54:02;;;;;;;8.15;3.13;;;;;;;12.20;100.00;100220.94;4972306;28;20230;-47
2023/07/03 01:56:37;;;;;;;11.93;3.85;;;;;;;12.12;100.00;100223.19;4970632;28;20260;-49
2023/07/03 01:59:08;;;;;;;8.52;3.28;;;;;;;12.10;100.00;100227.75;4972093;28;20507;-48
2023/07/03 02:01:49;;;;;;;11.10;3.42;;;;;;;12.09;100.00;100215.25;4971982;28;20811;-49
2023/07/03 02:04:23;;;;;;;11.40;3.78;;;;;;;12.17;100.00;100223.78;4971847;28;20269;-48
2023/07/03 02:06:51;;;;;;;11.43;3.45;;;;;;;12.14;100.00;100210.53;4971832;28;20240;-48
2023/07/03 02:09:17;;;;;;;9.73;3.45;;;;;;;12.15;100.00;100233.75;4986642;28;20243;-50
2023/07/03 02:11:47;;;;;;;13.68;3.83;;;;;;;12.18;100.00;100221.94;4970273;28;20676;-50
2023/07/03 04:15:23;;;;;;;7.80;2.80;;;;;;;12.50;100.00;100201.38;4990188;28;20548;-51
2023/07/03 04:18:28;;;;;;;13.50;3.22;;;;;;;12.60;100.00;100197.22;4988805;28;20181;-52
2023/07/03 04:25:25;;;;;;;10.13;3.17;;;;;;;12.74;100.00;100194.59;4990892;28;20297;-50
2023/07/03 04:35:31;;;;;;;11.13;3.10;;;;;;;12.95;100.00;100199.72;4990444;28;20188;-46
2023/07/03 05:11:00;;;;;;;7.53;2.95;;;;;;;13.46;100.00;100205.66;4994003;28;20177;-47
2023/07/03 05:36:13;;;;;;;10.20;2.90;;;;;;;12.89;100.00;100243.94;4977740;28;20663;-47
2023/07/03 05:49:42;;;;;;;8.15;2.67;;;;;;;13.80;100.00;100235.94;4995505;28;20185;-47
2023/07/03 05:56:25;;;;;;;6.82;3.10;;;;;;;13.61;100.00;100255.03;4993194;28;20164;-46
2023/07/03 06:06:30;;;;;;;9.25;2.90;;;;;;;13.64;100.00;100259.34;4992233;28;20261;-45
2023/07/03 06:16:34;;;;;;;8.15;3.22;;;;;;;13.62;100.00;100245.97;4976806;28;20664;-53
2023/07/03 06:19:28;;;;;;;11.05;2.60;;;;;;;13.86;100.00;100256.22;4983188;28;20185;-51
2023/07/03 06:26:39;;;;;;;8.40;2.88;;;;;;;14.19;100.00;100254.16;4979621;28;20205;-51
2023/07/03 06:33:01;;;;;;;9.23;2.80;;;;;;;14.57;100.00;100256.25;4981061;28;20196;-50
2023/07/03 06:42:10;;;;;;;11.55;2.30;;;;;;;14.77;100.00;100256.81;5746691;23;20713;-50
2023/07/03 06:44:42;;;;;;;6.32;2.08;;;;;;;15.18;100.00;100248.69;5033651;28;20211;-50
2023/07/03 06:47:07;;;;;;;10.55;2.28;;;;;;;15.48;100.00;100231.41;5008343;28;20215;-46
2023/07/03 06:49:34;;;;;;;5.63;2.03;;;;;;;15.79;100.00;100230.19;5012488;28;20184;-50
2023/07/03 06:52:00;;;;;;;8.18;2.40;;;;;;;15.90;98.92;100232.13;5000256;28;20264;-45
2023/07/03 06:54:25;;;;;;;9.48;2.25;;;;;;;15.85;96.44;100234.28;5001049;28;20288;-46
2023/07/03 06:56:51;;;;;;;7.30;2.13;;;;;;;16.26;95.29;100230.50;5009255;28;20169;-52
2023/07/03 06:59:16;;;;;;;8.98;2.70;;;;;;;16.25;94.01;100226.94;4999640;28;20177;-47
2023/07/03 07:01:42;;;;;;;11.68;2.60;;;;;;;16.12;92.76;100231.50;4991799;28;20243;-48
2023/07/03 07:04:07;;;;;;;10.18;2.67;;;;;;;16.59;92.13;100239.84;5024269;28;20610;-50
2023/07/03 07:06:33;;;;;;;9.23;2.17;;;;;;;16.40;90.62;100229.53;5021046;28;20259;-47
2023/07/03 07:08:59;;;;;;;8.43;2.40;;;;;;;16.44;90.24;100229.19;5010246;28;20181;-46
2023/07/03 07:11:28;;;;;;;11.48;2.60;;;;;;;16.46;90.30;100226.34;5016057;28;20179;-46
2023/07/03 07:13:55;;;;;;;11.30;2.90;;;;;;;16.52;89.58;100231.31;5028991;28;20297;-47
2023/07/03 07:16:24;;;;;;;9.57;2.50;;;;;;;16.71;88.96;100228.13;5028591;28;20172;-46
2023/07/03 07:18:55;;;;;;;10.73;2.40;;;;;;;16.74;87.58;100227.91;5008465;28;20172;-47
2023/07/03 07:21:21;;;;;;;10.80;2.70;;;;;;;17.01;86.32;100216.91;5017338;28;20207;-46
2023/07/03 07:23:52;;;;;;;12.35;2.50;;;;;;;17.06;85.60;100227.41;5019410;28;20278;-51
2023/07/03 07:26:18;;;;;;;13.82;2.90;;;;;;;17.49;84.72;100208.75;5015862;28;20643;-47
2023/07/03 07:28:43;;;;;;;11.73;2.28;;;;;;;17.46;83.23;100203.56;5001229;28;20211;-48
2023/07/03 07:31:09;;;;;;;8.50;2.40;;;;;;;17.26;82.34;100215.91;5017202;28;20197;-52
2023/07/03 07:33:34;;;;;;;8.65;2.80;;;;;;;17.62;82.12;100210.50;5011260;28;20200;-47
2023/07/03 07:36:00;;;;;;;8.00;2.20;;;;;;;17.65;81.02;100202.16;5027607;28;20172;-48
2023/07/03 07:38:25;;;;;;;8.43;2.67;;;;;;;18.12;80.29;100211.94;5011214;28;20177;-50
2023/07/03 07:41:01;;;;;;;12.55;2.53;;;;;;;17.44;79.58;100201.94;5021214;28;20215;-47
2023/07/03 07:43:30;;;;;;;10.05;2.40;;;;;;;17.63;80.28;100215.81;5026617;28;20230;-51
2023/07/03 07:45:56;;;;;;;10.05;1.90;;;;;;;17.38;79.00;100189.75;5007661;28;20595;-47
2023/07/03 07:48:22;;;;;;;11.45;2.13;;;;;;;17.58;77.79;100193.63;5017032;28;20180;-47
2023/07/03 07:50:47;;;;;;;9.30;2.30;;;;;;;17.15;78.17;100185.25;5008612;28;20208;-47
2023/07/03 07:53:13;;;;;;;12.27;2.80;;;;;;;17.34;78.10;100176.56;5009436;28;20574;-48
2023/07/03 07:55:39;;;;;;;11.77;2.63;;;;;;;16.79;78.79;100206.81;5008699;28;20183;-49
2023/07/03 07:58:04;;;;;;;10.73;2.30;;;;;;;16.99;79.00;100196.34;5007473;28;20176;-48
2023/07/03 08:00:30;;;;;;;10.50;2.50;;;;;;;16.80;78.93;100195.03;5022643;28;20266;-47
2023/07/03 08:02:56;;;;;;;11.73;2.72;;;;;;;17.04;79.44;100210.41;5028189;28;20176;-48
2023/07/03 08:05:21;;;;;;;10.23;2.17;;;;;;;17.17;76.19;100188.69;5027088;28;20689;-49
2023/07/03 08:07:48;;;;;;;7.97;2.05;;;;;;;17.32;74.09;100175.81;5007491;28;20176;-47
2023/07/03 08:10:14;;;;;;;9.20;1.83;;;;;;;17.24;72.84;100181.81;5008125;28;20207;-48
2023/07/03 08:12:40;;;;;;;7.05;1.88;;;;;;;16.97;72.47;100174.81;5011224;28;20195;-45
2023/07/03 08:15:07;;;;;;;6.80;2.22;;;;;;;17.37;73.08;100185.31;5023496;28;20208;-48
2023/07/03 08:17:33;;;;;;;11.20;2.15;;;;;;;17.34;74.39;100206.34;5018077;28;20655;-46
2023/07/03 08:19:59;;;;;;;10.90;2.03;;;;;;;17.75;70.85;100191.44;5013867;28;20557;-47
2023/07/03 08:22:25;;;;;;;6.55;1.35;;;;;;;18.01;67.84;100165.88;5028194;28;20223;-47
2023/07/03 08:24:50;;;;;;;8.48;1.92;;;;;;;18.08;65.28;100167.13;5028175;28;20184;-50
2023/07/03 08:27:16;;;;;;;6.50;1.52;;;;;;;18.96;63.99;100159.09;5028217;28;20255;-47
2023/07/03 08:29:41;;;;;;;8.18;1.60;;;;;;;18.84;61.92;100142.84;5022181;28;20168;-48
2023/07/03 08:32:10;;;;;;;7.40;2.08;;;;;;;18.95;61.13;100144.66;5027178;28;20230;-48
2023/07/03 08:34:37;;;;;;;8.43;1.70;;;;;;;18.84;61.34;100140.13;5016184;28;20300;-49
2023/07/03 08:37:02;;;;;;;9.43;2.00;;;;;;;18.72;60.96;100158.28;5025039;28;20184;-46
2023/07/03 08:39:28;;;;;;;8.13;1.70;;;;;;;18.56;60.03;100143.38;5030013;28;20165;-48
2023/07/03 08:42:07;;;;;;;7.28;1.73;;;;;;;17.66;60.28;100128.84;5012058;28;20728;-46
2023/07/03 08:44:33;;;;;;;6.72;1.83;;;;;;;18.10;60.81;100151.59;5008897;28;20259;-48
2023/07/03 08:47:03;;;;;;;7.78;1.65;;;;;;;18.61;59.91;100155.59;5005903;28;20204;-46
2023/07/03 08:49:31;;;;;;;10.30;1.58;;;;;;;19.05;57.54;100136.63;5013445;28;20200;-46
2023/07/03 08:51:59;;;;;;;6.90;1.42;;;;;;;18.61;57.13;100125.75;5018622;28;20179;-48
2023/07/03 08:54:32;;;;;;;7.47;1.90;;;;;;;18.06;58.60;100128.44;5005068;28;20288;-46
2023/07/03 08:56:58;;;;;;;5.25;1.50;;;;;;;18.63;58.89;100152.72;5017326;28;20185;-48
2023/07/03 08:59:24;;;;;;;6.53;1.58;;;;;;;19.26;57.19;100139.34;5021366;28;20199;-48
2023/07/03 09:02:04;;;;;;;6.65;1.45;;;;;;;19.77;56.84;100141.28;5019499;28;20196;-47
2023/07/03 09:04:54;;;;;;;7.57;1.75;;;;;;;19.49;56.53;100134.66;5013656;28;20223;-47
2023/07/03 09:07:27;;;;;;;5.28;1.58;;;;;;;19.77;54.38;100119.53;5015559;28;20219;-46
2023/07/03 09:10:11;;;;;;;6.00;1.58;;;;;;;19.63;53.92;100092.66;5019380;28;20264;-47
2023/07/03 09:12:42;;;;;;;5.88;1.35;;;;;;;19.96;52.33;100097.00;5022523;28;20168;-46
2023/07/03 09:15:17;;;;;;;7.30;1.50;;;;;;;19.76;51.19;100074.31;5031844;28;20254;-47
2023/07/03 09:17:43;;;;;;;5.20;1.40;;;;;;;20.06;52.22;100095.19;5031987;28;20182;-47
2023/07/03 09:20:12;;;;;;;7.60;1.50;;;;;;;19.93;52.92;100109.00;5023533;28;20168;-45
2023/07/03 09:22:53;;;;;;;5.53;1.80;;;;;;;20.39;53.44;100131.22;5016532;28;20645;-48
2023/07/03 09:25:24;;;;;;;6.45;1.58;;;;;;;19.86;52.77;100117.88;5012456;28;20267;-47
2023/07/03 09:27:53;;;;;;;7.53;1.65;;;;;;;19.83;54.11;100135.31;5019461;28;20202;-45
2023/07/03 09:30:18;;;;;;;6.25;1.85;;;;;;;20.07;53.81;100135.00;5023440;28;20598;-46
2023/07/03 09:32:44;;;;;;;5.80;1.40;;;;;;;19.82;53.40;100122.69;5015370;28;20188;-48
2023/07/03 09:35:15;;;;;;;8.48;1.42;;;;;;;20.40;53.57;100138.41;5022812;28;20330;-47
2023/07/03 09:38:01;;;;;;;7.15;1.60;;;;;;;20.74;55.10;100162.56;5006210;28;20187;-47
2023/07/03 09:40:31;;;;;;;8.30;1.98;;;;;;;20.58;55.56;100174.84;5022741;28;20545;-46
2023/07/03 09:42:57;;;;;;;7.60;1.77;;;;;;;19.75;56.33;100160.44;5015643;28;20226;-46
2023/07/03 09:45:28;;;;;;;7.38;1.67;;;;;;;19.69;57.17;100182.72;5021768;28;20651;-47
2023/07/03 09:47:57;;;;;;;5.38;1.80;;;;;;;20.29;57.03;100190.16;5010954;28;20619;-46
2023/07/03 09:50:43;;;;;;;6.35;1.80;;;;;;;20.13;57.29;100196.13;5024682;28;20203;-46
2023/07/03 09:53:16;;;;;;;9.35;2.33;;;;;;;20.18;56.59;100172.09;5005926;28;20200;-46
2023/07/03 09:55:43;;;;;;;4.25;1.40;;;;;;;20.34;54.89;100164.28;5003569;28;20627;-48
2023/07/03 09:58:14;;;;;;;4.63;1.70;;;;;;;20.12;52.29;100130.00;5009413;28;20200;-48
2023/07/03 10:00:51;;;;;;;7.28;1.33;;;;;;;20.61;50.94;100130.16;5019753;28;20208;-47
2023/07/03 10:03:28;;;;;;;4.65;1.17;;;;;;;20.77;51.19;100124.16;5010550;28;20194;-48
2023/07/03 10:05:56;;;;;;;3.25;1.10;;;;;;;19.94;49.93;100124.34;4976366;28;20246;-47
2023/07/03 10:08:25;;;;;;;4.13;1.17;;;;;;;19.60;50.52;100131.84;5006944;28;20188;-45
2023/07/03 10:10:55;;;;;;;4.43;1.40;;;;;;;20.30;50.65;100140.22;5008847;28;20173;-46
2023/07/03 10:13:28;;;;;;;4.95;1.23;;;;;;;20.32;50.51;100128.19;4995849;28;20221;-49
2023/07/03 10:15:55;;;;;;;3.00;1.15;;;;;;;20.47;50.61;100142.28;5019700;28;20183;-49
2023/07/03 10:18:27;;;;;;;8.05;1.25;;;;;;;19.78;50.46;100143.00;5005169;28;20180;-48
2023/07/03 10:20:53;;;;;;;4.35;1.23;;;;;;;18.98;51.29;100148.97;5014621;28;20653;-48
2023/07/03 10:23:25;;;;;;;4.25;1.30;;;;;;;18.72;52.21;100162.84;5021745;28;20203;-45
2023/07/03 10:26:05;;;;;;;4.82;1.48;;;;;;;18.32;52.14;100168.81;5015313;28;20466;-45
2023/07/03 10:28:51;;;;;;;4.18;1.25;;;;;;;19.33;52.10;100181.28;5021631;28;20200;-46
2023/07/03 10:31:24;;;;;;;5.65;1.58;;;;;;;19.37;52.18;100173.72;5000550;28;20185;-47
2023/07/03 10:33:56;;;;;;;4.90;1.48;;;;;;;19.37;52.48;100168.28;5028823;28;20203;-47
2023/07/03 10:36:26;;;;;;;7.88;1.48;;;;;;;20.23;51.60;100180.72;5018194;28;20245;-47
2023/07/03 10:38:58;;;;;;;5.20;1.52;;;;;;;20.46;50.58;100173.19;5017987;28;20180;-45
2023/07/03 10:41:38;;;;;;;6.65;1.40;;;;;;;20.89;50.89;100179.34;5025735;28;20665;-45
2023/07/03 10:44:08;;;;;;;3.50;1.20;;;;;;;21.25;50.60;100177.78;5015245;28;20212;-45
2023/07/03 10:46:46;;;;;;;3.65;1.42;;;;;;;21.04;51.10;100186.13;5018079;28;20223;-48
2023/07/03 10:49:24;;;;;;;8.35;1.75;;;;;;;20.69;50.72;100176.59;5013449;28;20616;-49
2023/07/03 10:52:10;;;;;;;4.70;1.30;;;;;;;20.81;49.72;100166.44;5013399;28;20534;-49
2023/07/03 10:54:43;;;;;;;8.15;1.42;;;;;;;20.27;49.87;100152.25;5025693;28;20203;-48
2023/07/03 10:57:16;;;;;;;6.47;1.48;;;;;;;20.01;50.19;100176.31;5013049;28;20180;-48
2023/07/03 10:59:47;;;;;;;6.00;1.70;;;;;;;19.76;50.85;100172.16;5007082;28;20202;-47
2023/07/03 11:02:34;;;;;;;4.50;1.20;;;;;;;19.17;52.22;100187.16;5009388;28;20681;-46
2023/07/03 11:05:11;;;;;;;5.88;1.42;;;;;;;19.50;52.04;100198.84;5011467;28;20269;-47
2023/07/03 11:07:57;;;;;;;7.28;1.27;;;;;;;19.72;50.71;100187.91;5009350;28;20259;-44
2023/07/03 11:10:32;;;;;;;4.90;1.13;;;;;;;20.27;51.06;100193.06;5008612;28;20412;-49
2023/07/03 11:13:25;;;;;;;6.25;1.70;;;;;;;19.87;51.33;100184.81;5015462;28;20263;-46
2023/07/03 11:15:59;;;;;;;4.63;1.17;;;;;;;19.15;52.40;100194.56;4996022;28;20193;-48
2023/07/03 11:18:28;;;;;;;4.72;1.08;;;;;;;18.94;52.47;100192.66;4990318;28;20176;-48
2023/07/03 11:21:08;;;;;;;8.55;1.63;;;;;;;19.00;52.26;100196.72;4995037;28;20209;-49
2023/07/03 11:23:55;;;;;;;4.57;1.33;;;;;;;18.58;52.84;100201.09;4996908;28;20221;-51
2023/07/03 11:26:40;;;;;;;3.28;1.10;;;;;;;18.46;53.43;100209.25;4992829;28;20723;-51
2023/07/03 11:29:08;;;;;;;5.78;1.40;;;;;;;19.07;53.68;100218.81;4999624;28;20183;-51
2023/07/03 11:31:34;;;;;;;3.80;1.27;;;;;;;20.00;53.83;100222.69;5003992;28;20184;-49
2023/07/03 11:34:02;;;;;;;7.93;1.42;;;;;;;19.67;53.03;100208.28;4997040;28;20205;-49
2023/07/03 11:36:45;;;;;;;8.15;2.10;;;;;;;19.94;52.90;100214.06;4995551;28;20304;-51
2023/07/03 11:39:19;;;;;;;5.05;1.63;;;;;;;20.40;53.00;100224.59;4995233;28;20184;-49
2023/07/03 11:41:55;;;;;;;7.63;1.83;;;;;;;20.40;52.37;100214.59;4994479;28;20586;-51
2023/07/03 11:44:27;;;;;;;5.18;1.27;;;;;;;19.40;52.69;100220.53;4993601;28;20216;-49
2023/07/03 11:46:59;;;;;;;8.57;1.88;;;;;;;18.96;54.32;100245.97;5003119;28;20188;-51
2023/07/03 11:49:29;;;;;;;7.45;1.95;;;;;;;18.95;54.67;100242.38;5004223;28;20188;-53
2023/07/03 11:51:57;;;;;;;5.57;1.75;;;;;;;18.55;55.99;100264.63;4994836;28;20579;-51
2023/07/03 11:54:27;;;;;;;8.98;1.38;;;;;;;18.23;56.78;100267.19;4999779;28;20662;-49
2023/07/03 11:57:25;;;;;;;6.88;1.55;;;;;;;18.16;56.44;100265.97;4997511;28;20185;-51
2023/07/03 11:59:50;;;;;;;7.97;1.65;;;;;;;18.27;57.61;100285.81;4998944;28;20247;-53
2023/07/03 12:02:18;;;;;;;5.05;1.42;;;;;;;18.16;58.13;100293.06;4998829;28;20213;-49
2023/07/03 12:04:47;;;;;;;10.38;1.92;;;;;;;18.01;57.75;100295.97;4999382;28;20298;-51
2023/07/03 12:07:19;;;;;;;8.65;1.70;;;;;;;17.98;58.30;100303.50;5000307;28;20499;-49
2023/07/03 12:09:50;;;;;;;9.02;1.40;;;;;;;17.54;59.24;100311.31;4998483;28;20188;-50
2023/07/03 12:12:29;;;;;;;6.35;1.80;;;;;;;17.61;60.23;100330.69;5001006;28;20173;-51
2023/07/03 12:15:00;;;;;;;6.60;1.63;;;;;;;17.62;59.88;100332.41;5006732;28;20298;-51
2023/07/03 12:17:34;;;;;;;6.82;1.48;;;;;;;17.36;60.29;100331.66;5004987;28;20177;-52
2023/07/03 12:20:10;;;;;;;8.05;1.83;;;;;;;17.22;61.26;100338.97;5010670;28;20185;-53
2023/07/03 12:22:49;;;;;;;8.32;1.83;;;;;;;17.14;61.25;100354.88;5005463;28;20261;-53
2023/07/03 12:25:20;;;;;;;5.45;1.40;;;;;;;17.37;60.53;100344.22;5004908;28;20181;-50
2023/07/03 12:27:47;;;;;;;10.82;1.85;;;;;;;17.47;60.11;100338.00;5001296;28;20681;-50
2023/07/03 12:30:33;;;;;;;7.25;1.70;;;;;;;17.36;59.27;100328.94;4997467;28;20220;-51
2023/07/03 12:33:01;;;;;;;8.73;1.55;;;;;;;17.30;59.05;100333.84;5000926;28;20659;-49
2023/07/03 12:35:42;;;;;;;4.40;1.20;;;;;;;17.37;58.73;100317.16;5007957;28;20188;-48
2023/07/03 12:38:09;;;;;;;6.65;1.40;;;;;;;17.56;58.04;100322.91;5000029;28;20515;-52
2023/07/03 12:40:46;;;;;;;6.78;1.65;;;;;;;17.75;57.71;100314.22;4999851;28;20258;-49
2023/07/03 12:43:17;;;;;;;5.20;1.10;;;;;;;17.77;56.79;100316.81;4998486;28;20204;-53
2023/07/03 12:45:50;;;;;;;5.93;1.25;;;;;;;17.49;56.48;100298.13;4998374;28;20207;-51
2023/07/03 12:48:21;;;;;;;6.22;1.75;;;;;;;17.79;56.36;100314.88;5003804;28;20561;-54
2023/07/03 12:50:49;;;;;;;7.07;1.67;;;;;;;17.80;56.47;100322.88;5001838;28;20267;-50
2023/07/03 12:53:15;;;;;;;6.38;1.38;;;;;;;17.90;57.38;100332.06;5002152;28;20209;-49
2023/07/03 12:55:44;;;;;;;9.00;1.50;;;;;;;18.11;57.40;100336.81;5002980;28;20555;-49
2023/07/03 12:58:11;;;;;;;7.80;1.40;;;;;;;17.83;57.82;100351.63;5004123;28;20631;-49
2023/07/03 13:00:37;;;;;;;7.38;1.27;;;;;;;18.07;56.54;100328.03;4999047;28;20220;-55
2023/07/03 13:03:13;;;;;;;5.15;1.30;;;;;;;17.91;56.29;100328.38;5012570;28;20671;-49
2023/07/03 13:05:39;;;;;;;7.15;1.38;;;;;;;17.88;56.71;100325.03;5006069;28;20215;-53
2023/07/03 13:08:11;;;;;;;7.38;1.52;;;;;;;17.85;56.86;100338.81;5003827;28;20182;-49
2023/07/03 13:10:37;;;;;;;5.55;1.50;;;;;;;18.15;56.89;100337.41;5003703;28;20198;-49
2023/07/03 13:13:16;;;;;;;7.22;1.40;;;;;;;18.04;56.65;100330.16;5001929;28;20181;-50
2023/07/03 13:15:44;;;;;;;6.18;1.63;;;;;;;17.85;57.22;100333.41;5002773;28;20653;-49
2023/07/03 13:18:12;;;;;;;7.47;1.83;;;;;;;17.57;57.64;100337.31;5000530;28;20608;-54
2023/07/03 13:20:39;;;;;;;8.07;1.42;;;;;;;17.49;58.08;100354.13;4991675;28;20245;-53
2023/07/03 13:23:07;;;;;;;7.10;1.30;;;;;;;17.77;58.51;100350.19;4997732;28;20635;-48
2023/07/03 13:25:47;;;;;;;10.98;2.00;;;;;;;18.06;57.23;100337.19;5000981;28;20184;-52
2023/07/03 13:28:32;;;;;;;5.95;1.48;;;;;;;18.07;57.10;100338.88;4998665;28;20571;-50
2023/07/03 13:31:16;;;;;;;6.70;1.50;;;;;;;17.91;57.08;100316.69;5000755;28;20521;-51
2023/07/03 13:33:43;;;;;;;8.02;1.45;;;;;;;17.91;56.50;100332.94;5007580;28;20287;-51
2023/07/03 13:36:30;;;;;;;6.57;1.38;;;;;;;17.67;56.44;100328.38;4995400;28;20190;-49
2023/07/03 13:38:59;;;;;;;4.40;1.30;;;;;;;17.68;56.55;100338.22;4998012;28;20655;-50
2023/07/03 13:41:25;;;;;;;6.55;1.60;;;;;;;17.66;57.03;100331.19;4995968;28;20213;-48
2023/07/03 13:43:56;;;;;;;4.57;1.30;;;;;;;17.63;57.24;100345.84;4997859;28;20262;-48
2023/07/03 13:46:21;;;;;;;8.60;1.73;;;;;;;17.54;56.74;100345.69;4997772;28;20966;-47
2023/07/03 13:48:47;;;;;;;7.47;1.33;;;;;;;17.60;56.91;100345.19;4996852;28;20181;-48
2023/07/03 13:51:12;;;;;;;6.30;1.55;;;;;;;17.53;57.10;100352.91;4997119;28;20182;-51
2023/07/03 13:53:38;;;;;;;7.18;1.58;;;;;;;17.25;58.01;100356.81;4994663;28;20671;-52
2023/07/03 13:56:03;;;;;;;5.35;1.10;;;;;;;17.26;57.64;100369.38;4994467;28;20792;-52
2023/07/03 13:58:29;;;;;;;5.70;1.60;;;;;;;17.08;57.99;100366.19;4996041;28;20182;-48
2023/07/03 14:00:54;;;;;;;5.47;1.40;;;;;;;17.16;57.53;100374.59;4998843;28;20905;-53
2023/07/03 14:03:20;;;;;;;4.00;1.35;;;;;;;17.20;57.17;100372.53;4998422;28;20227;-48
2023/07/03 14:05:46;;;;;;;6.80;1.60;;;;;;;17.14;57.30;100372.97;5000210;28;20220;-48
2023/07/03 14:08:11;;;;;;;4.53;1.60;;;;;;;17.13;57.46;100392.91;4994301;28;20219;-48
2023/07/03 14:10:37;;;;;;;5.45;1.30;;;;;;;17.12;57.32;100381.25;4999572;28;20181;-48
2023/07/03 14:13:02;;;;;;;6.80;1.58;;;;;;;16.94;57.77;100390.66;4996186;28;20620;-48
2023/07/03 14:15:28;;;;;;;6.90;1.50;;;;;;;17.03;58.30;100387.28;4995956;28;20181;-50
2023/07/03 14:17:54;;;;;;;4.68;1.23;;;;;;;16.93;58.81;100395.22;4999477;28;20190;-48
2023/07/03 14:20:21;;;;;;;7.43;1.52;;;;;;;16.95;59.01;100403.25;4996971;28;20201;-52
2023/07/03 14:22:48;;;;;;;5.00;1.65;;;;;;;16.81;59.57;100398.78;4997110;28;20185;-50
2023/07/03 14:25:14;;;;;;;7.93;1.35;;;;;;;16.71;60.00;100406.69;5003311;28;20578;-50
2023/07/03 14:27:40;;;;;;;9.73;1.92;;;;;;;17.00;60.35;100422.72;5000473;28;20199;-49
2023/07/03 14:30:07;;;;;;;8.23;1.75;;;;;;;16.94;60.33;100417.72;5002073;28;20184;-48
2023/07/03 14:32:34;;;;;;;8.63;1.80;;;;;;;16.87;60.58;100401.94;5000052;28;20184;-50
2023/07/03 14:35:06;;;;;;;7.78;1.75;;;;;;;17.05;60.84;100405.19;4995861;28;20228;-45
2023/07/03 14:37:33;;;;;;;10.63;1.95;;;;;;;16.81;61.54;100421.28;5000693;28;20208;-46
2023/07/03 14:39:58;;;;;;;6.32;1.73;;;;;;;16.74;61.90;100422.69;4997417;28;20222;-48
2023/07/03 14:42:24;;;;;;;3.95;1.50;;;;;;;16.82;62.40;100444.69;4998999;28;20232;-48
2023/07/03 14:44:49;;;;;;;8.13;1.77;;;;;;;16.71;62.62;100441.84;5000391;28;20223;-46
2023/07/03 14:47:15;;;;;;;10.10;1.65;;;;;;;16.41;63.14;100447.53;4998366;28;20182;-47
2023/07/03 14:49:40;;;;;;;8.23;2.00;;;;;;;16.39;64.07;100469.28;4999705;28;20298;-46
2023/07/03 14:52:06;;;;;;;12.10;2.08;;;;;;;16.27;64.71;100473.69;4998742;28;20168;-47
2023/07/03 14:54:32;;;;;;;8.45;1.77;;;;;;;16.52;65.25;100476.56;4999300;28;20272;-49
2023/07/03 14:56:58;;;;;;;9.55;1.70;;;;;;;16.39;65.66;100498.16;4996308;28;20776;-49
2023/07/03 14:59:23;;;;;;;9.98;2.05;;;;;;;16.39;67.26;100503.56;4996265;28;20272;-47
2023/07/03 15:01:49;;;;;;;6.18;1.60;;;;;;;15.98;72.01;100543.22;5004131;28;20201;-46
2023/07/03 15:04:14;;;;;;;7.10;1.98;;;;;;;15.69;74.72;100566.66;4997868;28;20221;-46
2023/07/03 15:06:40;;;;;;;6.95;1.50;;;;;;;14.86;76.56;100581.72;4993246;28;20270;-47
2023/07/03 15:09:07;;;;;;;4.05;1.35;;;;;;;14.08;80.91;100597.88;4995752;28;20299;-46
2023/07/03 15:11:34;;;;;;;5.07;1.23;;;;;;;13.73;84.52;100582.75;4997713;28;20240;-46
2023/07/03 15:13:59;;;;;;;4.25;1.10;;;;;;;13.49;87.01;100576.91;5004333;28;20579;-48
2023/07/03 15:16:29;;;;;;;2.75;1.05;;;;;;;13.33;89.55;100546.38;5001548;28;20275;-46
2023/07/03 15:19:00;;;;;;;2.85;0.90;;;;;;;13.55;90.45;100533.47;5001768;28;20185;-47
2023/07/03 15:21:25;;;;;;;4.80;0.90;;;;;;;13.49;91.02;100524.88;5000224;28;20205;-45
2023/07/03 15:23:51;;;;;;;1.85;0.77;;;;;;;13.63;92.65;100538.44;5000717;28;20259;-47
2023/07/03 15:26:16;;;;;;;2.05;0.77;;;;;;;13.95;93.76;100544.72;4998133;28;20192;-46
2023/07/03 15:28:42;;;;;;;1.02;0.73;;;;;;;13.86;93.93;100545.22;5000810;28;20259;-46
2023/07/03 15:31:07;;;;;;;2.88;0.90;;;;;;;13.94;94.15;100553.75;4995589;28;20177;-46
2023/07/03 15:33:34;;;;;;;4.15;0.98;;;;;;;14.15;94.56;100543.56;4995719;28;20293;-45